createdAt,value
2023-02-23T00:02:46.310Z,19.57
2023-02-23T00:07:50.375Z,17.03
2023-02-23T00:12:53.276Z,14.33
2023-02-23T00:17:57.837Z,12.73
2023-02-23T00:23:00.975Z,11.33
2023-02-23T00:28:04.563Z,9.70
2023-02-23T00:33:07.678Z,10.63
2023-02-23T00:38:10.615Z,11.57
2023-02-23T00:43:15.231Z,10.10
2023-02-23T00:48:18.270Z,11.97
2023-02-23T00:53:21.226Z,9.83
2023-02-23T00:58:27.768Z,11.97
2023-02-23T01:03:30.948Z,11.13
2023-02-23T01:08:35.463Z,11.90
2023-02-23T01:13:39.424Z,9.63
2023-02-23T01:18:46.711Z,11.13
2023-02-23T01:23:51.308Z,22.40
2023-02-23T01:29:00.781Z,18.17
2023-02-23T01:34:06.115Z,13.77
2023-02-23T01:39:15.944Z,17.03
2023-02-23T01:44:18.927Z,23.87
2023-02-23T01:49:28.105Z,18.33
2023-02-23T01:54:38.154Z,14.30
2023-02-23T01:59:47.040Z,9.77
2023-02-23T02:04:52.398Z,11.47
2023-02-23T02:10:13.810Z,9.93
2023-02-23T02:15:19.419Z,8.73
2023-02-23T02:20:42.971Z,6.97
2023-02-23T02:26:37.547Z,6.93
2023-02-23T02:31:49.815Z,6.53
2023-02-23T02:37:45.441Z,6.50
2023-02-23T02:43:00.267Z,5.10
2023-02-23T02:48:38.750Z,6.57
2023-02-23T02:54:38.055Z,6.17
2023-02-23T03:00:06.885Z,10.23
2023-02-23T03:05:38.186Z,9.00
2023-02-23T03:11:28.697Z,9.80
2023-02-23T03:17:07.277Z,9.67
2023-02-23T03:23:01.163Z,8.30
2023-02-23T03:28:51.553Z,8.93
2023-02-23T03:34:30.069Z,9.70
2023-02-23T03:40:04.545Z,8.53
2023-02-23T03:45:37.507Z,8.93
2023-02-23T03:51:12.593Z,7.87
2023-02-23T03:56:37.174Z,7.33
2023-02-23T04:01:59.270Z,8.17
2023-02-23T04:07:23.009Z,6.90
2023-02-23T04:12:57.668Z,6.37
2023-02-23T04:18:00.788Z,5.90
2023-02-23T04:23:03.830Z,5.80
2023-02-23T04:28:07.003Z,6.13
2023-02-23T04:33:10.264Z,7.83
2023-02-23T04:38:13.170Z,7.10
2023-02-23T04:43:16.266Z,8.13
2023-02-23T04:48:19.491Z,10.20
2023-02-23T04:53:22.691Z,6.60
2023-02-23T04:58:25.776Z,7.63
2023-02-23T05:03:28.731Z,9.03
2023-02-23T05:08:31.709Z,7.53
2023-02-23T05:13:35.125Z,10.10
2023-02-23T05:18:38.041Z,6.93
2023-02-23T05:23:41.730Z,6.67
2023-02-23T05:28:45.172Z,7.40
2023-02-23T05:33:48.183Z,9.97
2023-02-23T05:38:51.145Z,7.37
2023-02-23T05:43:55.245Z,6.10
2023-02-23T05:49:01.316Z,7.40
2023-02-23T05:54:04.777Z,6.67
2023-02-23T05:59:07.774Z,9.53
2023-02-23T06:04:11.068Z,8.70
2023-02-23T06:09:14.042Z,8.30
2023-02-23T06:14:17.543Z,8.33
2023-02-23T06:19:21.806Z,11.83
2023-02-23T06:24:24.919Z,9.97
2023-02-23T06:29:28.569Z,9.20
2023-02-23T06:34:32.069Z,8.30
2023-02-23T06:39:34.996Z,9.63
2023-02-23T06:44:38.076Z,9.77
2023-02-23T06:49:40.983Z,10.33
2023-02-23T06:54:44.813Z,9.50
2023-02-23T06:59:48.057Z,8.83
2023-02-23T07:04:51.123Z,7.13
2023-02-23T07:09:53.988Z,8.13
2023-02-23T07:14:57.148Z,9.80
2023-02-23T07:20:00.116Z,7.70
2023-02-23T07:25:04.575Z,6.60
2023-02-23T07:30:08.860Z,10.37
2023-02-23T07:35:12.514Z,8.37
2023-02-23T07:40:16.220Z,10.53
2023-02-23T07:45:19.506Z,6.70
2023-02-23T07:50:22.463Z,7.20
2023-02-23T07:55:25.472Z,6.33
2023-02-23T08:00:28.620Z,7.07
2023-02-23T08:05:32.220Z,9.80
2023-02-23T08:10:35.125Z,6.40
2023-02-23T08:15:38.634Z,6.13
2023-02-23T08:20:41.415Z,6.93
2023-02-23T08:25:44.513Z,9.90
2023-02-23T08:30:47.504Z,6.77
2023-02-23T08:35:53.565Z,6.30
2023-02-23T08:41:01.734Z,7.40
2023-02-23T08:46:06.591Z,6.70
2023-02-23T08:51:09.813Z,6.17
2023-02-23T08:56:13.397Z,5.97
2023-02-23T09:01:22.165Z,6.47
2023-02-23T09:06:26.760Z,5.43
2023-02-23T09:11:29.666Z,5.83
2023-02-23T09:16:33.487Z,6.10
2023-02-23T09:21:36.745Z,5.60
2023-02-23T09:26:43.537Z,5.70
2023-02-23T09:31:48.099Z,5.90
2023-02-23T09:36:52.186Z,5.87
2023-02-23T09:42:13.071Z,8.20
2023-02-23T09:47:27.786Z,6.73
2023-02-23T09:52:45.412Z,6.00
2023-02-23T09:57:49.922Z,6.40
2023-02-23T10:03:02.269Z,7.23
2023-02-23T10:08:19.549Z,7.20
2023-02-23T10:13:49.185Z,6.43
2023-02-23T10:19:04.144Z,6.37
2023-02-23T10:24:29.219Z,6.87
2023-02-23T10:29:52.462Z,6.80
2023-02-23T10:34:56.970Z,5.90
2023-02-23T10:40:00.093Z,5.80
2023-02-23T10:45:03.551Z,7.20
2023-02-23T10:50:09.719Z,6.00
2023-02-23T10:55:31.800Z,6.03
2023-02-23T11:00:41.201Z,5.90
2023-02-23T11:05:50.478Z,5.10
2023-02-23T11:11:06.838Z,5.40
2023-02-23T11:16:17.201Z,5.63
2023-02-23T11:21:38.859Z,6.13
2023-02-23T11:26:44.472Z,6.10
2023-02-23T11:31:52.510Z,5.50
2023-02-23T11:37:06.257Z,5.73
2023-02-23T11:42:23.246Z,5.80
2023-02-23T11:47:26.304Z,5.70
2023-02-23T11:52:30.172Z,5.50
2023-02-23T11:57:37.026Z,5.63
2023-02-23T12:03:03.647Z,5.50
2023-02-23T12:08:28.470Z,4.60
2023-02-23T12:13:56.620Z,4.73
2023-02-23T12:19:19.239Z,5.40
2023-02-23T12:24:35.042Z,5.53
2023-02-23T12:29:55.829Z,5.97
2023-02-23T12:35:04.955Z,5.90
2023-02-23T12:40:19.362Z,6.07
2023-02-23T12:46:02.949Z,6.17
2023-02-23T12:51:25.414Z,5.33
2023-02-23T12:56:53.982Z,6.13
2023-02-23T13:02:01.453Z,6.03
2023-02-23T13:07:41.873Z,5.40
2023-02-23T13:13:11.405Z,6.50
2023-02-23T13:18:41.479Z,5.73
2023-02-23T13:24:11.184Z,6.30
2023-02-23T13:29:32.865Z,6.43
2023-02-23T13:34:54.616Z,7.83
2023-02-23T13:40:41.115Z,8.20
2023-02-23T13:46:25.661Z,7.20
2023-02-23T13:51:52.266Z,7.33
2023-02-23T13:56:59.215Z,6.03
2023-02-23T14:02:37.257Z,5.77
2023-02-23T14:07:45.095Z,6.67
2023-02-23T14:13:26.640Z,6.97
2023-02-23T14:18:33.196Z,5.28
2023-02-23T14:24:13.061Z,7.27
2023-02-23T14:29:31.987Z,9.27
2023-02-23T14:34:57.563Z,6.13
2023-02-23T14:40:25.182Z,7.27
2023-02-23T14:45:38.970Z,15.60
2023-02-23T14:50:42.255Z,7.87
2023-02-23T14:55:45.688Z,6.70
2023-02-23T15:00:49.405Z,6.70
2023-02-23T15:05:58.971Z,7.57
2023-02-23T15:11:13.311Z,14.33
2023-02-23T15:16:23.153Z,13.33
2023-02-23T15:21:26.645Z,10.93
2023-02-23T15:26:37.522Z,9.00
2023-02-23T15:31:50.389Z,10.98
2023-02-23T15:37:05.849Z,18.73
2023-02-23T15:42:16.594Z,14.40
2023-02-23T15:47:28.500Z,10.82
2023-02-23T15:52:35.152Z,8.73
2023-02-23T15:57:56.264Z,8.30
2023-02-23T16:03:02.774Z,9.57
2023-02-23T16:08:24.320Z,8.97
2023-02-23T16:13:27.472Z,6.97
2023-02-23T16:18:40.691Z,8.67
2023-02-23T16:23:49.409Z,7.80
2023-02-23T16:29:02.192Z,9.40
2023-02-23T16:34:31.696Z,11.30
2023-02-23T16:39:34.697Z,9.33
2023-02-23T16:44:43.645Z,9.53
2023-02-23T16:49:47.040Z,9.43
2023-02-23T16:54:54.597Z,17.60
2023-02-23T16:59:58.877Z,15.70
2023-02-23T17:05:01.903Z,18.03
2023-02-23T17:10:06.321Z,20.70
2023-02-23T17:15:18.994Z,39.57
2023-02-23T17:20:26.257Z,40.27
2023-02-23T17:25:29.461Z,36.43
2023-02-23T17:30:32.720Z,26.63
2023-02-23T17:35:37.622Z,28.23
2023-02-23T17:40:40.512Z,24.10
2023-02-23T17:45:43.556Z,31.43
2023-02-23T17:50:46.539Z,38.63
2023-02-23T17:55:51.377Z,22.83
2023-02-23T18:00:59.414Z,22.67
2023-02-23T18:06:11.695Z,22.33
2023-02-23T18:11:18.764Z,16.03
2023-02-23T18:16:23.453Z,15.13
2023-02-23T18:21:26.638Z,29.60
2023-02-23T18:26:30.784Z,32.47
2023-02-23T18:31:35.147Z,27.43
2023-02-23T18:36:38.628Z,32.87
2023-02-23T18:41:42.611Z,32.13
2023-02-23T18:46:46.682Z,30.97
2023-02-23T18:51:49.982Z,31.63
2023-02-23T18:56:54.526Z,31.13
2023-02-23T19:01:57.726Z,42.07
2023-02-23T19:07:00.698Z,28.47
2023-02-23T19:12:03.948Z,25.70
2023-02-23T19:17:07.071Z,23.10
2023-02-23T19:22:10.084Z,16.27
2023-02-23T19:27:12.870Z,13.70
2023-02-23T19:32:19.056Z,13.00
2023-02-23T19:37:24.509Z,15.17
2023-02-23T19:42:27.516Z,11.60
2023-02-23T19:47:30.690Z,13.77
2023-02-23T19:52:34.900Z,12.87
2023-02-23T19:57:37.852Z,16.27
2023-02-23T20:02:44.646Z,13.03
2023-02-23T20:07:48.696Z,13.43
2023-02-23T20:12:53.360Z,13.63
2023-02-23T20:17:56.051Z,9.73
2023-02-23T20:22:59.093Z,11.67
2023-02-23T20:28:03.349Z,10.30
2023-02-23T20:33:10.961Z,10.33
2023-02-23T20:38:15.488Z,10.27
2023-02-23T20:43:18.523Z,12.33
2023-02-23T20:48:21.540Z,10.40
2023-02-23T20:53:26.348Z,8.20
2023-02-23T20:58:29.206Z,8.83
2023-02-23T21:03:35.724Z,11.07
2023-02-23T21:08:39.937Z,11.30
2023-02-23T21:13:43.484Z,15.27
2023-02-23T21:18:52.592Z,14.57
2023-02-23T21:23:55.501Z,15.57
2023-02-23T21:28:58.521Z,18.03
2023-02-23T21:34:05.478Z,15.70
2023-02-23T21:39:08.589Z,17.77
2023-02-23T21:44:12.161Z,18.07
2023-02-23T21:49:16.633Z,18.83
2023-02-23T21:54:21.588Z,15.43
2023-02-23T21:59:24.576Z,16.50
2023-02-23T22:04:27.574Z,18.43
2023-02-23T22:09:30.504Z,17.33
2023-02-23T22:14:33.643Z,14.63
2023-02-23T22:19:36.535Z,17.63
2023-02-23T22:24:39.484Z,16.77
2023-02-23T22:29:43.602Z,14.07
2023-02-23T22:34:46.547Z,20.60
2023-02-23T22:39:50.021Z,18.20
2023-02-23T22:44:53.086Z,15.40
2023-02-23T22:49:55.833Z,18.60
2023-02-23T22:54:59.556Z,20.37
2023-02-23T23:00:10.390Z,19.30
2023-02-23T23:05:13.938Z,19.52
2023-02-23T23:10:18.138Z,17.47
2023-02-23T23:15:22.193Z,19.83
2023-02-23T23:20:26.385Z,23.67
2023-02-23T23:25:29.715Z,20.87
2023-02-23T23:30:35.254Z,20.47
2023-02-23T23:35:38.175Z,17.90
2023-02-23T23:40:46.926Z,16.57
2023-02-23T23:45:51.931Z,17.43
2023-02-23T23:50:56.237Z,18.77
2023-02-23T23:56:09.094Z,17.80
